^^
Station Historical Data
Daily Summary for January 14, 2018 Units:  English    Metric   Both
« Previous Day
Next Day »
Daily Weekly Monthly Yearly Custom
  High: Low: Average:
Temperature: 48.8 °F 21.5 °F 33.5 °F
Dew Point: 29.8 °F 17.7 °F 24.1 °F
Humidity: 88% 44% 70%
Wind Speed: 8.1mph 0.0mph 1.6mph
Wind Gust: 8.1mph - -
Wind- - South
Pressure: 30.43 in 30.13 in -
Precipitation: 0.00 in    
Historical Graphs
 
 
Tabular Data for January 14, 2018
Time Temperature Dew Point Pressure Wind Wind Speed Wind Gust Humidity Rainfall Rate (Hourly) solar Conditions
00:04 31.3 °F 26.4 °F 30.29 in ESE 1.2 mph 1.2 mph 82% 0.00 in WeatherDisplay:10.37 W/m2 CLR
00:13 31.2 °F 26.3 °F 30.29 in ESE 2.3 mph 2.3 mph 82% 0.00 in WeatherDisplay:10.37 W/m2 CLR
00:22 31.2 °F 26.3 °F 30.29 in Calm     82% 0.00 in WeatherDisplay:10.37 W/m2 CLR
01:08 27.2 °F 21.5 °F 30.32 in SSW 5.8 mph 5.8 mph 79% 0.00 in WeatherDisplay:10.37 W/m2 CLR
01:31 26.9 °F 22.1 °F 30.33 in SW 6.9 mph 6.9 mph 82% 0.00 in WeatherDisplay:10.37 W/m2 CLR
01:51 26.8 °F 22.0 °F 30.33 in SSW 2.3 mph 2.3 mph 82% 0.00 in WeatherDisplay:10.37 W/m2 CLR
01:57 26.9 °F 22.1 °F 30.33 in SSW 2.3 mph 2.3 mph 82% 0.00 in WeatherDisplay:10.37 W/m2 CLR
02:10 27.1 °F 22.6 °F 30.33 in SW 3.5 mph 3.5 mph 83% 0.00 in WeatherDisplay:10.37 W/m2 CLR
02:18 27.3 °F 22.8 °F 30.32 in SSW 3.5 mph 3.5 mph 83% 0.00 in WeatherDisplay:10.37 W/m2 CLR
02:25 27.4 °F 22.9 °F 30.33 in SSW 1.2 mph   83% 0.00 in WeatherDisplay:10.37 W/m2 CLR
02:32 27.3 °F 22.8 °F 30.33 in Calm     83% 0.00 in WeatherDisplay:10.37 W/m2 CLR
03:11 26.2 °F 21.5 °F 30.34 in WSW 2.3 mph 2.3 mph 82% 0.00 in WeatherDisplay:10.37 W/m2 CLR
03:29 26.2 °F 22.0 °F 30.33 in SW 3.5 mph 3.5 mph 84% 0.00 in WeatherDisplay:10.37 W/m2 CLR
03:34 26.4 °F 22.5 °F 30.33 in SSW 2.3 mph 2.3 mph 85% 0.00 in WeatherDisplay:10.37 W/m2 CLR
03:46 26.8 °F 22.9 °F 30.33 in WSW 2.0 mph 2.0 mph 85% 0.00 in WeatherDisplay:10.37 W/m2 CLR
03:52 26.9 °F 22.7 °F 30.33 in WSW 2.3 mph 2.3 mph 84% 0.00 in WeatherDisplay:10.37 W/m2 CLR
03:58 26.5 °F 21.7 °F 30.32 in SW 1.2 mph 1.2 mph 82% 0.00 in WeatherDisplay:10.37 W/m2 CLR
04:12 26.2 °F 22.3 °F 30.34 in SW 2.3 mph 2.3 mph 85% 0.00 in WeatherDisplay:10.37 W/m2 CLR
04:25 26.5 °F 22.6 °F 30.33 in SW 3.5 mph 3.5 mph 85% 0.00 in WeatherDisplay:10.37 W/m2 CLR
04:33 26.3 °F 22.1 °F 30.33 in SW 2.3 mph 2.3 mph 84% 0.00 in WeatherDisplay:10.37 W/m2 CLR
04:41 26.2 °F 22.0 °F 30.33 in Calm     84% 0.00 in WeatherDisplay:10.37 W/m2 CLR
04:46 26.1 °F 21.9 °F 30.33 in SW 1.2 mph   84% 0.00 in WeatherDisplay:10.37 W/m2 CLR
05:23 24.6 °F 19.9 °F 30.38 in Calm     82% 0.00 in WeatherDisplay:10.37 W/m2 CLR
05:53 24.2 °F 20.6 °F 30.37 in SW 1.2 mph 1.2 mph 86% 0.00 in WeatherDisplay:10.37 W/m2 CLR
05:58 24.3 °F 20.7 °F 30.37 in SW 2.3 mph 2.3 mph 86% 0.00 in WeatherDisplay:10.37 W/m2 CLR
06:04 24.2 °F 20.6 °F 30.39 in Calm     86% 0.00 in WeatherDisplay:10.37 W/m2 CLR
06:15 23.5 °F 19.4 °F 30.40 in Calm     84% 0.00 in WeatherDisplay:10.37 W/m2 CLR
06:25 22.7 °F 18.3 °F 30.41 in Calm     83% 0.00 in WeatherDisplay:10.37 W/m2 CLR
06:37 21.9 °F 17.8 °F 30.41 in Calm     84% 0.00 in WeatherDisplay:10.37 W/m2 CLR
06:50 21.5 °F 17.7 °F 30.41 in Calm     85% 0.00 in WeatherDisplay:10.37 W/m2 CLR
07:20 21.6 °F 18.3 °F 30.43 in Calm     87% 0.00 in WeatherDisplay:10.37 W/m2 CLR
07:29 21.9 °F 18.9 °F 30.43 in Calm     88% 0.00 in WeatherDisplay:10.37 W/m2 CLR
07:42 22.5 °F 19.5 °F 30.41 in Calm     88% 0.00 in WeatherDisplay:10.37 W/m2 CLR
07:48 22.8 °F 19.8 °F 30.41 in Calm     88% 0.00 in WeatherDisplay:10.37 W/m2 CLR
08:03 23.5 °F 20.5 °F 30.43 in Calm     88% 0.00 in WeatherDisplay:10.37 W/m2 CLR
08:09 24.0 °F 21.0 °F 30.42 in Calm     88% 0.00 in WeatherDisplay:10.37 W/m2 CLR
08:17 24.7 °F 21.4 °F 30.42 in Calm     87% 0.00 in WeatherDisplay:10.37 W/m2 CLR
08:24 25.2 °F 21.3 °F 30.42 in WSW 1.2 mph 1.2 mph 85% 0.00 in WeatherDisplay:10.37 W/m2 CLR
08:30 25.8 °F 21.6 °F 30.41 in Calm     84% 0.00 in WeatherDisplay:10.37 W/m2 CLR
08:37 26.5 °F 22.3 °F 30.41 in Calm     84% 0.00 in WeatherDisplay:10.37 W/m2 CLR
08:43 27.2 °F 22.4 °F 30.41 in Calm   0.1 mph 82% 0.00 in WeatherDisplay:10.37 W/m2 CLR
08:48 28.0 °F 23.2 °F 30.40 in Calm     82% 0.00 in WeatherDisplay:10.37 W/m2 CLR
09:14 29.8 °F 23.5 °F 30.40 in NW 3.5 mph 3.5 mph 77% 0.00 in WeatherDisplay:10.37 W/m2 CLR
09:27 30.6 °F 24.6 °F 30.38 in NW 1.0 mph   78% 0.00 in WeatherDisplay:10.37 W/m2 CLR
09:34 31.3 °F 24.6 °F 30.39 in NW 2.3 mph 2.3 mph 76% 0.00 in WeatherDisplay:10.37 W/m2 CLR
10:04 33.2 °F 25.8 °F 30.38 in NW 2.3 mph 2.3 mph 74% 0.00 in WeatherDisplay:10.37 W/m2 CLR
10:16 34.4 °F 26.6 °F 30.37 in NW 1.2 mph 1.2 mph 73% 0.00 in WeatherDisplay:10.37 W/m2 CLR
10:31 36.0 °F 27.2 °F 30.34 in NW 1.2 mph 1.2 mph 70% 0.00 in WeatherDisplay:10.37 W/m2 CLR
10:43 37.4 °F 27.1 °F 30.34 in NW 2.3 mph 2.3 mph 66% 0.00 in WeatherDisplay:10.37 W/m2 CLR
10:56 38.4 °F 27.7 °F 30.32 in NW 1.2 mph 1.2 mph 65% 0.00 in WeatherDisplay:10.37 W/m2 CLR
11:17 39.2 °F 28.8 °F 30.26 in East 2.3 mph 2.3 mph 66% 0.00 in WeatherDisplay:10.37 W/m2 CLR
11:26 40.1 °F 28.9 °F 30.25 in ESE 3.5 mph 3.5 mph 64% 0.00 in WeatherDisplay:10.37 W/m2 CLR
11:40 41.0 °F 29.0 °F 30.23 in North 3.5 mph 3.5 mph 62% 0.00 in WeatherDisplay:10.37 W/m2 CLR
12:16 43.4 °F 29.2 °F 30.21 in ENE 2.3 mph 2.3 mph 57% 0.00 in WeatherDisplay:10.37 W/m2 CLR
12:22 44.5 °F 29.8 °F 30.19 in ENE 2.3 mph 2.3 mph 56% 0.00 in WeatherDisplay:10.37 W/m2 CLR
12:56 45.8 °F 29.2 °F 30.15 in East 5.8 mph 5.8 mph 52% 0.00 in WeatherDisplay:10.37 W/m2 CLR
13:02 45.8 °F 28.7 °F 30.16 in SE 8.1 mph 8.1 mph 51% 0.00 in WeatherDisplay:10.37 W/m2 CLR
13:08 46.1 °F 29.0 °F 30.16 in ENE 4.0 mph 4.0 mph 51% 0.00 in WeatherDisplay:10.37 W/m2 CLR
13:18 46.5 °F 28.8 °F 30.15 in NE 3.5 mph 3.5 mph 50% 0.00 in WeatherDisplay:10.37 W/m2 CLR
13:36 47.0 °F 28.8 °F 30.14 in ENE 4.6 mph 4.6 mph 49% 0.00 in WeatherDisplay:10.37 W/m2 CLR
14:05 46.8 °F 29.1 °F 30.13 in ENE 6.0 mph 6.0 mph 50% 0.00 in WeatherDisplay:10.37 W/m2 CLR
14:17 47.1 °F 28.9 °F 30.13 in NE 6.9 mph 6.9 mph 49% 0.00 in WeatherDisplay:10.37 W/m2 CLR
14:29 47.7 °F 28.4 °F 30.14 in East 5.8 mph 5.8 mph 47% 0.00 in WeatherDisplay:10.37 W/m2 CLR
14:35 48.1 °F 28.8 °F 30.14 in ENE 3.5 mph 3.5 mph 47% 0.00 in WeatherDisplay:10.37 W/m2 CLR
14:41 48.2 °F 28.4 °F 30.14 in ENE 3.5 mph 3.5 mph 46% 0.00 in WeatherDisplay:10.37 W/m2 CLR
14:47 48.3 °F 28.5 °F 30.14 in East 5.8 mph 5.8 mph 46% 0.00 in WeatherDisplay:10.37 W/m2 CLR
14:54 48.5 °F 28.1 °F 30.14 in NE 3.5 mph 3.5 mph 45% 0.00 in WeatherDisplay:10.37 W/m2 CLR
15:06 48.8 °F 27.8 °F 30.14 in ENE 4.0 mph 4.0 mph 44% 0.00 in WeatherDisplay:10.37 W/m2 CLR
15:13 48.8 °F 27.8 °F 30.15 in Calm     44% 0.00 in WeatherDisplay:10.37 W/m2 CLR
15:28 48.6 °F 27.6 °F 30.15 in ENE 3.5 mph 3.5 mph 44% 0.00 in WeatherDisplay:10.37 W/m2 CLR
15:36 48.6 °F 27.6 °F 30.15 in ENE 2.3 mph 2.3 mph 44% 0.00 in WeatherDisplay:10.37 W/m2 CLR
15:41 48.7 °F 27.7 °F 30.15 in ENE 3.0 mph 3.0 mph 44% 0.00 in WeatherDisplay:10.37 W/m2 CLR
15:51 48.6 °F 27.6 °F 30.15 in Calm     44% 0.00 in WeatherDisplay:10.37 W/m2 CLR
15:59 48.5 °F 27.6 °F 30.15 in Calm     44% 0.00 in WeatherDisplay:10.37 W/m2 CLR
16:12 48.1 °F 27.2 °F 30.15 in Calm     44% 0.00 in WeatherDisplay:10.37 W/m2 CLR
16:26 47.4 °F 26.6 °F 30.16 in Calm     44% 0.00 in WeatherDisplay:10.37 W/m2 CLR
16:34 46.9 °F 26.6 °F 30.16 in Calm     45% 0.00 in WeatherDisplay:10.37 W/m2 CLR
16:51 45.2 °F 26.7 °F 30.16 in Calm     48% 0.00 in WeatherDisplay:10.37 W/m2 CLR
17:09 43.0 °F 25.6 °F 30.18 in Calm     50% 0.00 in WeatherDisplay:10.37 W/m2 CLR
17:14 42.4 °F 25.5 °F 30.18 in Calm     51% 0.00 in WeatherDisplay:10.37 W/m2 CLR
17:27 40.4 °F 24.6 °F 30.20 in Calm     53% 0.00 in WeatherDisplay:10.37 W/m2 CLR
18:01 36.8 °F 24.6 °F 30.22 in SW 1.2 mph   61% 0.00 in WeatherDisplay:10.37 W/m2 CLR
18:14 36.1 °F 24.3 °F 30.25 in Calm     62% 0.00 in WeatherDisplay:10.37 W/m2 CLR
18:40 33.7 °F 23.2 °F 30.26 in Calm     65% 0.00 in WeatherDisplay:10.37 W/m2 CLR
19:28 31.8 °F 22.8 °F 30.26 in Calm     69% 0.00 in WeatherDisplay:10.37 W/m2 CLR
19:49 31.4 °F 22.4 °F 30.25 in Calm     69% 0.00 in WeatherDisplay:10.37 W/m2 CLR
20:11 31.0 °F 23.0 °F 30.22 in Calm     72% 0.00 in WeatherDisplay:10.37 W/m2 CLR
20:19 30.7 °F 22.1 °F 30.22 in Calm     70% 0.00 in WeatherDisplay:10.37 W/m2 CLR
20:32 30.2 °F 22.6 °F 30.24 in Calm     73% 0.00 in WeatherDisplay:10.37 W/m2 CLR
20:38 30.1 °F 21.8 °F 30.24 in Calm     71% 0.00 in WeatherDisplay:10.37 W/m2 CLR
21:09 28.8 °F 21.9 °F 30.24 in Calm     75% 0.00 in WeatherDisplay:10.37 W/m2 CLR
21:15 28.6 °F 22.0 °F 30.24 in Calm     76% 0.00 in WeatherDisplay:10.37 W/m2 CLR
21:29 28.8 °F 23.1 °F 30.24 in Calm     79% 0.00 in WeatherDisplay:10.37 W/m2 CLR
21:34 28.9 °F 23.2 °F 30.25 in Calm     79% 0.00 in WeatherDisplay:10.37 W/m2 CLR
21:51 29.2 °F 22.6 °F 30.26 in SW 2.3 mph 2.3 mph 76% 0.00 in WeatherDisplay:10.37 W/m2 CLR
22:01 28.7 °F 22.4 °F 30.27 in Calm     77% 0.00 in WeatherDisplay:10.37 W/m2 CLR
22:23 29.3 °F 22.4 °F 30.25 in Calm     75% 0.00 in WeatherDisplay:10.37 W/m2 CLR
22:33 29.6 °F 22.3 °F 30.25 in Calm     74% 0.00 in WeatherDisplay:10.37 W/m2 CLR
23:00 30.6 °F 23.6 °F 30.23 in Calm     75% 0.00 in WeatherDisplay:10.37 W/m2 CLR
23:06 30.7 °F 23.4 °F 30.22 in Calm     74% 0.00 in WeatherDisplay:10.37 W/m2 CLR
23:12 30.7 °F 23.4 °F 30.23 in Calm     74% 0.00 in WeatherDisplay:10.37 W/m2 CLR
23:27 30.7 °F 23.7 °F 30.24 in Calm     75% 0.00 in WeatherDisplay:10.37 W/m2 CLR
23:50 30.3 °F 23.3 °F 30.25 in SW 4.6 mph 4.6 mph 75% 0.00 in WeatherDisplay:10.37 W/m2 CLR
23:56 30.2 °F 23.5 °F 30.25 in SSW 3.5 mph 3.5 mph 76% 0.00 in WeatherDisplay:10.37 W/m2 CLR
Windsor Co Weather
Compliments of Weather Underground - 2 mb